Weather reports worldwide

Advertisment
Usk, United Kingdom (99176): temperature & dewpoint: 14.10.2018 15:00:00 - 20.10.2018 15:00:00 (BST)Usk, United Kingdom (99176): temperature -20cm & temperature -100cm: 14.10.2018 15:00:00 - 20.10.2018 15:00:00 (BST)Usk, United Kingdom (99176): precipitation: 14.10.2018 15:00:00 - 20.10.2018 15:00:00 (BST)
Date & Time tt [°C] td [°C] tt -20cm [°C] tt -100cm [°C] rr [mm]
20.10.2018 15:00:00 - - - - -
20.10.2018 14:00:00 16,8 11,8 - - 0,0
20.10.2018 13:00:00 15,5 11,8 - - 0,0
20.10.2018 12:00:00 13,9 11,6 - - 0,0
20.10.2018 11:00:00 11,3 11,2 - - 0,0
20.10.2018 10:00:00 6,6 6,6 12,7 13,9 0,0
20.10.2018 09:00:00 5,3 5,3 - - 0,0
20.10.2018 08:00:00 4,9 4,8 - - 0,0
20.10.2018 07:00:00 5,1 4,9 - - 0,0
20.10.2018 06:00:00 5,8 5,7 - - 0,0
20.10.2018 05:00:00 5,7 5,6 - - 0,0
20.10.2018 04:00:00 5,3 5,1 - - 0,0
20.10.2018 03:00:00 5,7 5,6 - - 0,0
20.10.2018 02:00:00 5,4 5,2 - - 0,0
20.10.2018 01:00:00 5,5 5,2 - - 0,0
20.10.2018 00:00:00 5,7 5,3 - - 0,0
19.10.2018 23:00:00 6,6 6,3 - - 0,0
19.10.2018 22:00:00 7,1 6,7 - - 0,0
19.10.2018 21:00:00 8,0 7,5 - - 0,0
19.10.2018 20:00:00 9,4 8,3 - - 0,0
19.10.2018 19:00:00 11,3 9,5 - - 0,0
19.10.2018 18:00:00 13,5 9,1 - - 0,0
19.10.2018 17:00:00 14,6 9,4 - - 0,0
19.10.2018 16:00:00 16,2 9,5 - - 0,0
19.10.2018 15:00:00 16,1 9,0 - - 0,0
19.10.2018 14:00:00 15,3 9,9 - - 0,0
19.10.2018 13:00:00 13,2 8,7 - - 0,0
19.10.2018 12:00:00 10,1 9,3 - - 0,0
19.10.2018 11:00:00 6,2 6,0 - - 0,0
19.10.2018 10:00:00 5,0 5,0 12,9 14,0 0,0
19.10.2018 09:00:00 4,2 4,2 - - 0,0
19.10.2018 08:00:00 4,2 4,1 - - 0,0
19.10.2018 07:00:00 4,3 4,3 - - 0,0
19.10.2018 06:00:00 4,9 4,8 - - 0,2
19.10.2018 05:00:00 4,4 4,4 - - 0,0
19.10.2018 04:00:00 4,1 4,1 - - 0,0
19.10.2018 03:00:00 4,2 4,2 - - 0,0
19.10.2018 02:00:00 3,9 3,7 - - 0,0
19.10.2018 01:00:00 4,4 4,3 - - 0,0
19.10.2018 00:00:00 4,7 4,3 - - 0,0
18.10.2018 23:00:00 5,2 4,8 - - 0,0
18.10.2018 22:00:00 6,3 5,8 - - 0,0
18.10.2018 21:00:00 7,5 6,5 - - 0,0
18.10.2018 20:00:00 9,9 8,9 - - 0,0
18.10.2018 19:00:00 9,6 8,0 - - 0,0
18.10.2018 18:00:00 12,4 8,3 - - 0,0
18.10.2018 17:00:00 13,6 8,3 - - 0,0
18.10.2018 16:00:00 14,1 8,9 - - 0,0
18.10.2018 15:00:00 13,7 9,0 - - 0,0
18.10.2018 14:00:00 12,6 8,1 - - 0,0
18.10.2018 13:00:00 13,3 7,8 - - 0,0
18.10.2018 12:00:00 12,7 7,6 - - 0,0
18.10.2018 11:00:00 12,4 6,6 - - 0,0
18.10.2018 10:00:00 9,6 5,6 13,7 14,0 0,0
18.10.2018 09:00:00 7,0 6,2 - - 0,0
18.10.2018 08:00:00 5,4 4,9 - - 0,0
18.10.2018 07:00:00 5,7 5,2 - - 0,0
18.10.2018 06:00:00 6,7 6,1 - - 0,0
18.10.2018 05:00:00 8,1 7,0 - - 0,0
18.10.2018 04:00:00 8,9 7,6 - - 0,0
18.10.2018 03:00:00 9,0 7,9 - - 0,0
18.10.2018 02:00:00 9,2 8,0 - - 0,0
18.10.2018 01:00:00 9,9 8,7 - - 0,0
18.10.2018 00:00:00 10,7 8,9 - - 0,0
17.10.2018 23:00:00 11,2 9,1 - - 0,0
17.10.2018 22:00:00 12,0 9,8 - - 0,0
17.10.2018 21:00:00 11,9 10,0 - - 0,0
17.10.2018 20:00:00 13,3 10,1 - - 0,0
17.10.2018 19:00:00 13,9 10,3 - - 0,0
17.10.2018 18:00:00 15,0 10,4 - - 0,0
17.10.2018 17:00:00 16,5 8,9 - - 0,0
17.10.2018 16:00:00 17,4 9,6 - - 0,0
17.10.2018 15:00:00 16,9 10,2 - - 0,0
17.10.2018 14:00:00 16,8 10,0 - - 0,0
17.10.2018 13:00:00 16,0 9,7 - - 0,0
17.10.2018 12:00:00 15,1 9,6 - - 0,0
17.10.2018 11:00:00 15,2 10,2 - - 0,0
17.10.2018 10:00:00 12,6 11,8 13,7 14,0 0,0
17.10.2018 09:00:00 11,0 10,8 - - 0,0
17.10.2018 08:00:00 10,8 10,4 - - 0,0
17.10.2018 07:00:00 11,4 10,8 - - 0,0
17.10.2018 06:00:00 12,4 11,8 - - 0,0
17.10.2018 05:00:00 12,5 12,0 - - 0,0
17.10.2018 04:00:00 12,7 11,8 - - 0,0
17.10.2018 03:00:00 12,4 11,8 - - 0,0
17.10.2018 02:00:00 12,3 11,2 - - 0,0
17.10.2018 01:00:00 12,6 10,8 - - 0,0
17.10.2018 00:00:00 12,6 10,9 - - 0,0
16.10.2018 23:00:00 12,3 10,3 - - 0,0
16.10.2018 22:00:00 11,7 10,8 - - 0,0
16.10.2018 21:00:00 10,3 9,8 - - 0,0
16.10.2018 20:00:00 10,8 9,5 - - 0,0
16.10.2018 19:00:00 12,4 10,3 - - 0,0
16.10.2018 18:00:00 13,6 11,5 - - 0,0
16.10.2018 17:00:00 14,6 11,1 - - 0,0
16.10.2018 16:00:00 15,0 11,2 - - 0,0
16.10.2018 15:00:00 15,7 13,7 - - 0,0
16.10.2018 14:00:00 15,8 13,9 - - 0,0
16.10.2018 13:00:00 14,7 13,3 - - 0,0
16.10.2018 12:00:00 14,2 13,0 - - 0,0
16.10.2018 11:00:00 13,9 12,7 - - 0,0
16.10.2018 10:00:00 12,7 12,6 13,7 14,2 0,0
16.10.2018 09:00:00 11,6 11,5 - - 0,0
16.10.2018 08:00:00 11,3 11,2 - - 0,0
16.10.2018 07:00:00 11,2 11,0 - - 0,0
16.10.2018 06:00:00 11,1 11,0 - - 0,0
16.10.2018 05:00:00 11,1 10,9 - - 0,0
16.10.2018 04:00:00 11,0 10,8 - - 0,0
16.10.2018 03:00:00 11,0 10,8 - - 0,0
16.10.2018 02:00:00 11,0 10,7 - - 0,0
16.10.2018 01:00:00 11,0 10,6 - - 0,0
16.10.2018 00:00:00 11,0 10,5 - - 0,0
15.10.2018 23:00:00 11,0 10,5 - - 0,0
15.10.2018 22:00:00 10,9 10,4 - - 0,2
15.10.2018 21:00:00 10,8 10,4 - - 0,0
15.10.2018 20:00:00 10,7 10,4 - - 0,0
15.10.2018 19:00:00 10,7 10,2 - - 0,2
15.10.2018 18:00:00 10,8 10,2 - - 0,4
15.10.2018 17:00:00 10,8 10,2 - - 0,4
15.10.2018 16:00:00 10,8 10,0 - - 0,4
15.10.2018 15:00:00 11,3 9,6 - - 0,0
15.10.2018 14:00:00 11,3 9,9 - - 0,0
15.10.2018 13:00:00 10,7 9,8 - - 0,2
15.10.2018 12:00:00 10,0 9,3 - - 0,0
15.10.2018 11:00:00 9,5 8,7 - - 0,4
15.10.2018 10:00:00 9,3 8,6 13,9 14,2 0,4
15.10.2018 09:00:00 9,0 8,4 - - 0,4
15.10.2018 08:00:00 8,8 8,2 - - 0,8
15.10.2018 07:00:00 8,8 8,2 - - 0,6
15.10.2018 06:00:00 9,1 7,7 - - 0,0
15.10.2018 05:00:00 9,3 7,7 - - 0,2
15.10.2018 04:00:00 9,4 7,6 - - 0,0
15.10.2018 03:00:00 9,7 7,0 - - 0,0
15.10.2018 02:00:00 9,8 6,9 - - 0,0
15.10.2018 01:00:00 9,8 6,8 - - 0,0
15.10.2018 00:00:00 9,9 6,7 - - 0,0
14.10.2018 23:00:00 9,8 6,9 - - 0,0
14.10.2018 22:00:00 9,9 6,8 - - 0,0
14.10.2018 21:00:00 10,2 7,2 - - 0,0
14.10.2018 20:00:00 10,3 7,8 - - 0,0
14.10.2018 19:00:00 10,6 7,7 - - 0,0
14.10.2018 18:00:00 11,1 7,7 - - 0,0
14.10.2018 17:00:00 11,9 7,8 - - 0,0
14.10.2018 16:00:00 11,5 8,4 - - 0,0
14.10.2018 15:00:00 11,5 9,0 - - 0,0

tt = temperature
td = dewpoint
tt -20cm = temperature -20cm
tt -100cm = temperature -100cm
rr = precipitation

Next stations